This is the latest recevied weather packets stored in our database for station/object OE9GTV. If no packets are shown the sender has not sent any weather packets the latest 1 day(s).
| Time | Temp. | Humidity | Pressure | Rain* | Wind** | Luminosity | Snow |
|---|---|---|---|---|---|---|---|
| 1778080871 | 13.33° C | 70% | 1006 hPa | 0.51 mm | - | 0 W/m² | - |
| 1778080276 | 13.33° C | 66% | 1006.2 hPa | 0.25 mm | - | 0 W/m² | - |
| 1778074875 | 18.89° C | 59% | 1003.1 hPa | 0 mm | - | 0 W/m² | - |
| 1778073675 | 19.44° C | 56% | 1002.8 hPa | 0 mm | - | 0 W/m² | - |
| 1778073075 | 19.44° C | 57% | 1002.8 hPa | 0 mm | - | 0 W/m² | - |
| 1778071875 | 18.89° C | 59% | 1002.7 hPa | 0 mm | - | 0 W/m² | - |
| 1778070075 | 17.78° C | 64% | 1002.8 hPa | 0 mm | - | 0 W/m² | - |
| 1778065274 | 16.67° C | 65% | 1002.9 hPa | 0 mm | - | 0 W/m² | - |
| 1778064074 | 16.11° C | 67% | 1003 hPa | 0 mm | - | 0 W/m² | - |
| 1778063474 | 16.67° C | 67% | 1003 hPa | 0 mm | - | 0 W/m² | - |
| 1778062874 | 16.67° C | 67% | 1003.1 hPa | 0 mm | - | 0 W/m² | - |
| 1778061674 | 16.67° C | 63% | 1003.3 hPa | 0 mm | - | 0 W/m² | - |
| 1778061074 | 16.67° C | 64% | 1003.6 hPa | 0 mm | - | 0 W/m² | - |
| 1778059273 | 17.22° C | 65% | 1003.5 hPa | 0 mm | - | 0 W/m² | - |
| 1778058674 | 16.11° C | 69% | 1003.3 hPa | 0 mm | - | 0 W/m² | - |
| 1778056273 | 14.44° C | 75% | 1003.4 hPa | 0 mm | - | 0 W/m² | - |
| 1778055673 | 13.89° C | 77% | 1003.7 hPa | 0 mm | - | 0 W/m² | - |
| 1778055073 | 13.89° C | 78% | 1003.6 hPa | 0 mm | - | 0 W/m² | - |
| 1778054473 | 13.33° C | 79% | 1003.8 hPa | 0 mm | - | 0 W/m² | - |
| 1778053873 | 13.33° C | 80% | 1003.8 hPa | 0 mm | - | 0 W/m² | - |
| 1778051472 | 12.22° C | 83% | 1003.5 hPa | 0 mm | - | 0 W/m² | - |
| 1778050273 | 12.22° C | 83% | 1003.9 hPa | 0 mm | - | 0 W/m² | - |
| 1778049672 | 11.67° C | 83% | 1004 hPa | 0 mm | - | 0 W/m² | - |
| 1778048472 | 11.67° C | 83% | 1003.8 hPa | 0 mm | - | 0 W/m² | - |
| 1778047872 | 11.67° C | 83% | 1004 hPa | 0 mm | - | 0 W/m² | - |
* Rain latest hour (hover to see other rain measurements)
** Current wind speed in m/s (hover to see current wind gust speed)